Time;durP1;ratioP1;P1;durP2;ratioP2;P2;SDS_P1;SDS_P2;PMS_P1;PMS_P2;Temp;Humidity;BMP_temperature;BMP_pressure;BME280_temperature;BME280_humidity;BME280_pressure;Samples;Min_cycle;Max_cycle;Signal;HPM_P1;HPM_P2
2023/02/28 00:02:12;;;;;;;;;;;;;;;-2.82;98.74;96942.19;5001118;28;19922;-72
2023/02/28 00:04:37;;;;;;;;;;;;;;;-2.81;98.45;96937.63;5005578;28;19928;-70
2023/02/28 00:07:02;;;;;;;;;;;;;;;-2.82;99.13;96946.78;5008230;28;20484;-69
2023/02/28 00:09:28;;;;;;;;;;;;;;;-2.83;98.51;96943.25;5025140;28;19917;-70
2023/02/28 00:11:53;;;;;;;;;;;;;;;-2.82;98.41;96941.41;5030061;28;19921;-70
2023/02/28 00:14:18;;;;;;;;;;;;;;;-2.82;98.80;96936.06;5024494;28;20325;-70
2023/02/28 00:16:44;;;;;;;;;;;;;;;-2.84;99.23;96935.53;5026353;28;19929;-71
2023/02/28 00:19:09;;;;;;;;;;;;;;;-2.84;99.03;96936.31;5022207;28;19928;-69
2023/02/28 00:21:35;;;;;;;;;;;;;;;-2.85;99.54;96936.59;5025664;28;19953;-71
2023/02/28 00:24:00;;;;;;;;;;;;;;;-2.81;98.19;96927.75;5045982;28;19924;-70
2023/02/28 00:26:25;;;;;;;;;;;;;;;-2.81;98.17;96924.22;5044907;28;19905;-69
2023/02/28 00:28:52;;;;;;;;;;;;;;;-2.84;99.05;96914.88;5037402;28;20601;-70
2023/02/28 00:31:17;;;;;;;;;;;;;;;-2.83;99.19;96932.53;5021107;28;19917;-70
2023/02/28 00:33:43;;;;;;;;;;;;;;;-2.84;99.36;96932.84;5025600;28;20047;-73
2023/02/28 00:36:10;;;;;;;;;;;;;;;-2.85;99.25;96932.03;5021829;28;20306;-70
2023/02/28 00:38:35;;;;;;;;;;;;;;;-2.84;99.75;96932.84;5027081;28;19921;-70
2023/02/28 00:41:04;;;;;;;;;;;;;;;-2.84;99.30;96935.53;5025225;28;19999;-70
2023/02/28 00:43:29;;;;;;;;;;;;;;;-2.86;99.63;96933.13;5023450;28;19921;-71
2023/02/28 00:45:55;;;;;;;;;;;;;;;-2.87;99.69;96923.47;5025073;28;20428;-71
2023/02/28 00:48:20;;;;;;;;;;;;;;;-2.86;99.55;96924.25;5020923;28;19963;-70
2023/02/28 00:50:48;;;;;;;;;;;;;;;-2.86;98.97;96922.38;5023642;28;20391;-72
2023/02/28 00:53:13;;;;;;;;;;;;;;;-2.88;99.12;96922.66;5007313;28;19931;-71
2023/02/28 00:55:38;;;;;;;;;;;;;;;-2.90;99.46;96929.34;5016116;28;19960;-71
2023/02/28 00:58:04;;;;;;;;;;;;;;;-2.92;99.96;96931.50;5006478;28;19921;-67
2023/02/28 01:00:29;;;;;;;;;;;;;;;-2.94;99.88;96913.03;5005048;28;19968;-69
2023/02/28 01:02:54;;;;;;;;;;;;;;;-2.95;100.00;96914.13;5004924;28;19968;-72
2023/02/28 01:05:19;;;;;;;;;;;;;;;-2.93;100.00;96920.00;5000354;28;19922;-70
2023/02/28 01:07:45;;;;;;;;;;;;;;;-2.95;100.00;96930.19;5015717;28;19917;-69
2023/02/28 01:10:10;;;;;;;;;;;;;;;-2.93;100.00;96929.91;5020572;28;19917;-70
2023/02/28 01:12:36;;;;;;;;;;;;;;;-2.95;100.00;96927.50;5024839;28;19956;-71
2023/02/28 01:15:01;;;;;;;;;;;;;;;-2.96;100.00;96919.75;5024287;28;19925;-68
2023/02/28 01:17:26;;;;;;;;;;;;;;;-2.96;100.00;96909.03;5019198;28;20365;-72
2023/02/28 01:19:53;;;;;;;;;;;;;;;-2.96;100.00;96920.53;5023915;28;20007;-69
2023/02/28 01:22:18;;;;;;;;;;;;;;;-2.97;100.00;96918.94;5020217;28;19921;-69
2023/02/28 01:24:43;;;;;;;;;;;;;;;-2.99;100.00;96922.97;5024285;28;19991;-72
2023/02/28 01:27:08;;;;;;;;;;;;;;;-2.98;100.00;96919.22;5018905;28;19917;-69
2023/02/28 01:29:34;;;;;;;;;;;;;;;-2.98;100.00;96919.22;5024831;28;20298;-70
2023/02/28 01:31:59;;;;;;;;;;;;;;;-2.97;100.00;96927.00;5024658;28;20016;-71
2023/02/28 01:34:24;;;;;;;;;;;;;;;-2.99;99.92;96918.44;5019755;28;19924;-71
2023/02/28 01:36:49;;;;;;;;;;;;;;;-2.99;100.00;96929.16;5023343;28;19917;-70
2023/02/28 01:39:15;;;;;;;;;;;;;;;-2.97;99.98;96929.66;5018281;28;19940;-71
2023/02/28 01:41:40;;;;;;;;;;;;;;;-2.99;100.00;96929.16;5027820;28;19928;-70
2023/02/28 01:44:24;;;;;;;;;;;;;;;-2.96;99.80;96927.78;5021089;28;19996;-71
2023/02/28 01:46:49;;;;;;;;;;;;;;;-2.99;100.00;96931.00;5025423;28;20011;-70
2023/02/28 01:49:16;;;;;;;;;;;;;;;-2.98;100.00;96927.25;5017250;28;20020;-69
2023/02/28 01:51:50;;;;;;;;;;;;;;;-2.99;100.00;96926.47;5015127;28;19961;-72
2023/02/28 01:54:23;;;;;;;;;;;;;;;-2.99;99.92;96925.63;5004617;28;19924;-71
2023/02/28 01:56:52;;;;;;;;;;;;;;;-2.98;100.00;96928.06;5004982;28;20497;-71
2023/02/28 01:59:29;;;;;;;;;;;;;;;-2.94;100.00;96928.31;4999722;28;19972;-68
2023/02/28 02:01:54;;;;;;;;;;;;;;;-2.85;99.66;96928.53;5003311;28;19932;-71
2023/02/28 02:04:21;;;;;;;;;;;;;;;-3.00;99.74;96918.69;4997121;28;19925;-72
2023/02/28 02:06:47;;;;;;;;;;;;;;;-2.99;99.99;96918.44;5006189;28;19971;-70
2023/02/28 02:09:12;;;;;;;;;;;;;;;-3.06;100.00;96920.59;5019411;28;19925;-70
2023/02/28 02:11:39;;;;;;;;;;;;;;;-3.07;100.00;96906.38;5024050;28;20432;-70
2023/02/28 02:14:08;;;;;;;;;;;;;;;-3.03;99.73;96913.88;5018351;28;19960;-70
2023/02/28 02:16:52;;;;;;;;;;;;;;;-3.04;99.71;96917.63;5022626;28;19956;-72
2023/02/28 02:19:41;;;;;;;;;;;;;;;-3.08;99.94;96917.34;5017608;28;19917;-71
2023/02/28 02:22:15;;;;;;;;;;;;;;;-3.03;99.63;96911.19;5018483;28;19925;-72
2023/02/28 02:25:05;;;;;;;;;;;;;;;-3.05;100.00;96908.78;5021603;28;19921;-70
2023/02/28 02:27:49;;;;;;;;;;;;;;;-3.07;100.00;96909.06;5022781;28;19932;-72
2023/02/28 02:30:29;;;;;;;;;;;;;;;-3.06;100.00;96907.19;5018726;28;19971;-72
2023/02/28 02:32:54;;;;;;;;;;;;;;;-3.12;100.00;96908.28;5024196;28;19917;-71
2023/02/28 02:35:20;;;;;;;;;;;;;;;-3.13;100.00;96904.00;5018620;28;19917;-71
2023/02/28 02:37:51;;;;;;;;;;;;;;;-3.07;100.00;96909.06;5022818;28;19924;-72
2023/02/28 02:40:17;;;;;;;;;;;;;;;-3.14;100.00;96911.22;5017535;28;19968;-71
2023/02/28 02:42:45;;;;;;;;;;;;;;;-3.14;100.00;96903.19;5023051;28;19969;-71
2023/02/28 02:45:14;;;;;;;;;;;;;;;-3.08;99.94;96907.47;5018245;28;19917;-72
2023/02/28 02:47:40;;;;;;;;;;;;;;;-3.12;99.42;96919.00;5023397;28;20274;-73
2023/02/28 02:50:08;;;;;;;;;;;;;;;-3.04;99.05;96913.06;5018428;28;19917;-72
2023/02/28 02:52:39;;;;;;;;;;;;;;;-3.09;99.37;96916.56;5017362;28;19918;-72
2023/02/28 02:55:05;;;;;;;;;;;;;;;-3.13;99.47;96920.06;4998783;28;19918;-68
2023/02/28 02:57:38;;;;;;;;;;;;;;;-3.14;99.42;96921.13;5007061;28;20267;-72
2023/02/28 03:00:08;;;;;;;;;;;;;;;-3.10;98.61;96912.28;5015735;28;19925;-68
2023/02/28 03:02:34;;;;;;;;;;;;;;;-3.07;98.28;96910.94;5030534;28;19921;-71
2023/02/28 03:05:02;;;;;;;;;;;;;;;-3.11;99.25;96918.72;5014342;28;19921;-73
2023/02/28 03:07:27;;;;;;;;;;;;;;;-3.12;99.08;96919.00;5007428;28;19918;-74
2023/02/28 03:09:53;;;;;;;;;;;;;;;-3.14;99.19;96919.25;5022914;28;20285;-71
2023/02/28 03:12:20;;;;;;;;;;;;;;;-3.14;98.79;96919.25;5017781;28;19940;-71
2023/02/28 03:14:55;;;;;;;;;;;;;;;-3.13;98.33;96915.50;5021522;28;19921;-73
2023/02/28 03:17:38;;;;;;;;;;;;;;;-3.11;98.50;96910.69;5017479;28;19924;-70
2023/02/28 03:20:24;;;;;;;;;;;;;;;-3.16;98.49;96921.41;5017371;28;19925;-68
2023/02/28 03:22:57;;;;;;;;;;;;;;;-3.12;98.40;96905.59;5022492;28;19921;-72
2023/02/28 03:25:32;;;;;;;;;;;;;;;-3.14;98.70;96899.72;5017177;28;20086;-72
2023/02/28 03:28:04;;;;;;;;;;;;;;;-3.11;98.39;96908.00;5020803;28;19917;-73
2023/02/28 03:30:36;;;;;;;;;;;;;;;-3.14;98.42;96903.19;5021072;28;19921;-72
2023/02/28 03:33:12;;;;;;;;;;;;;;;-3.15;98.51;96901.59;5021898;28;20324;-72
2023/02/28 03:35:50;;;;;;;;;;;;;;;-3.17;98.56;96903.75;5023743;28;19921;-73
2023/02/28 03:38:20;;;;;;;;;;;;;;;-3.14;98.13;96907.75;5020584;28;19917;-73
2023/02/28 03:40:48;;;;;;;;;;;;;;;-3.15;98.09;96909.63;5023133;28;19953;-73
2023/02/28 03:43:17;;;;;;;;;;;;;;;-3.19;98.64;96908.56;5022210;28;19949;-74
2023/02/28 03:45:44;;;;;;;;;;;;;;;-3.16;97.76;96905.34;5027988;28;19925;-72
2023/02/28 03:48:18;;;;;;;;;;;;;;;-3.14;97.72;96915.78;5019224;28;19921;-71
2023/02/28 03:50:45;;;;;;;;;;;;;;;-3.15;98.10;96917.66;5022012;28;19991;-71
2023/02/28 03:53:31;;;;;;;;;;;;;;;-3.16;97.08;96913.38;5016890;28;19932;-73
2023/02/28 03:56:00;;;;;;;;;;;;;;;-3.17;96.82;96916.31;5021882;28;19987;-72
2023/02/28 03:58:36;;;;;;;;;;;;;;;-3.20;97.36;96920.34;5000557;28;19925;-70
2023/02/28 04:01:08;;;;;;;;;;;;;;;-3.18;96.55;96922.78;5002470;28;19936;-72
2023/02/28 04:03:36;;;;;;;;;;;;;;;-3.19;96.02;96907.75;5001577;28;20016;-71
2023/02/28 04:06:03;;;;;;;;;;;;;;;-3.21;96.45;96920.63;5001135;28;20091;-69
2023/02/28 04:08:28;;;;;;;;;;;;;;;-3.18;95.81;96933.50;5017565;28;19924;-73
2023/02/28 04:10:57;;;;;;;;;;;;;;;-3.23;96.52;96928.94;5025414;28;20418;-73
2023/02/28 04:13:22;;;;;;;;;;;;;;;-3.22;95.70;96927.03;5017882;28;20780;-73
2023/02/28 04:15:48;;;;;;;;;;;;;;;-3.23;95.97;96934.28;5022991;28;19917;-74
2023/02/28 04:18:13;;;;;;;;;;;;;;;-3.19;95.91;96934.53;5018481;28;19963;-71
2023/02/28 04:20:38;;;;;;;;;;;;;;;-3.25;96.13;96931.09;5036385;28;19932;-73
2023/02/28 04:23:04;;;;;;;;;;;;;;;-3.26;96.20;96937.50;5021951;28;19944;-69
2023/02/28 04:25:29;;;;;;;;;;;;;;;-3.25;96.08;96936.44;5019143;28;19917;-74
2023/02/28 04:27:54;;;;;;;;;;;;;;;-3.28;96.57;96937.78;5024611;28;20353;-72
2023/02/28 04:30:19;;;;;;;;;;;;;;;-3.26;96.28;96934.81;5020179;28;19921;-72
2023/02/28 04:32:45;;;;;;;;;;;;;;;-3.29;96.55;96922.00;5025335;28;20371;-72
2023/02/28 04:35:10;;;;;;;;;;;;;;;-3.28;96.23;96934.28;5019661;28;19921;-72
2023/02/28 04:37:36;;;;;;;;;;;;;;;-3.29;96.50;96930.81;5025355;28;19918;-71
2023/02/28 04:40:02;;;;;;;;;;;;;;;-3.28;95.71;96932.44;5025634;28;19922;-72
2023/02/28 04:42:34;;;;;;;;;;;;;;;-3.30;96.05;96934.56;5021598;28;20277;-71
2023/02/28 04:45:00;;;;;;;;;;;;;;;-3.26;96.11;96942.84;5025188;28;19921;-72
2023/02/28 04:47:25;;;;;;;;;;;;;;;-3.30;96.32;96937.25;5019636;28;20058;-72
2023/02/28 04:49:50;;;;;;;;;;;;;;;-3.31;97.11;96929.50;5006002;28;19971;-72
2023/02/28 04:52:15;;;;;;;;;;;;;;;-3.31;96.58;96940.22;5002613;28;19917;-70
2023/02/28 04:54:41;;;;;;;;;;;;;;;-3.33;96.29;96935.13;5024530;28;20348;-72
2023/02/28 04:57:06;;;;;;;;;;;;;;;-3.34;96.83;96938.88;5014817;28;19925;-72
2023/02/28 04:59:32;;;;;;;;;;;;;;;-3.37;97.15;96942.06;5003267;28;19918;-72
2023/02/28 05:01:57;;;;;;;;;;;;;;;-3.35;96.71;96931.91;5005495;28;20362;-73
2023/02/28 05:04:23;;;;;;;;;;;;;;;-3.37;96.78;96942.06;5000795;28;20698;-74
2023/02/28 05:06:48;;;;;;;;;;;;;;;-3.36;96.58;96937.53;5006535;28;19967;-74
2023/02/28 05:09:13;;;;;;;;;;;;;;;-3.37;97.08;96938.59;5007543;28;20374;-71
2023/02/28 05:11:39;;;;;;;;;;;;;;;-3.39;96.90;96946.91;5006324;28;19926;-72
2023/02/28 05:14:05;;;;;;;;;;;;;;;-3.34;96.47;96946.91;4999007;28;20474;-69
2023/02/28 05:16:31;;;;;;;;;;;;;;;-3.37;96.91;96949.31;5005553;28;19917;-71
2023/02/28 05:18:57;;;;;;;;;;;;;;;-3.38;96.64;96959.25;5005396;28;20016;-71
2023/02/28 05:21:24;;;;;;;;;;;;;;;-3.39;96.94;96959.50;5003599;28;20731;-71
2023/02/28 05:23:49;;;;;;;;;;;;;;;-3.42;97.53;96966.22;5005475;28;19918;-70
2023/02/28 05:26:15;;;;;;;;;;;;;;;-3.41;97.04;96969.69;5000654;28;19921;-70
2023/02/28 05:28:40;;;;;;;;;;;;;;;-3.41;96.56;96958.97;5004694;28;20031;-70
2023/02/28 05:31:05;;;;;;;;;;;;;;;-3.42;96.86;96962.72;5000633;28;19918;-70
2023/02/28 05:33:30;;;;;;;;;;;;;;;-3.44;96.73;96951.47;5005299;28;20351;-70
2023/02/28 05:35:56;;;;;;;;;;;;;;;-3.46;97.37;96946.38;5004773;28;19945;-73
2023/02/28 05:38:21;;;;;;;;;;;;;;;-3.48;97.43;96952.00;4997352;28;19961;-70
2023/02/28 05:40:46;;;;;;;;;;;;;;;-3.50;97.23;96962.19;5004402;28;20012;-71
2023/02/28 05:43:11;;;;;;;;;;;;;;;-3.48;97.17;96961.91;5002076;28;20374;-71
2023/02/28 05:45:37;;;;;;;;;;;;;;;-3.52;97.54;96956.28;5011697;28;19989;-74
2023/02/28 05:48:02;;;;;;;;;;;;;;;-3.50;97.47;96967.53;5013330;28;19922;-75
2023/02/28 05:50:28;;;;;;;;;;;;;;;-3.54;97.46;96966.47;5015456;28;20016;-76
2023/02/28 05:52:53;;;;;;;;;;;;;;;-3.52;97.00;96967.00;5023687;28;20105;-74
2023/02/28 05:55:18;;;;;;;;;;;;;;;-3.58;98.05;96970.78;5014604;28;19967;-77
2023/02/28 05:57:44;;;;;;;;;;;;;;;-3.53;97.51;96975.31;5008065;28;19927;-75
2023/02/28 06:00:10;;;;;;;;;;;;;;;-3.54;97.63;96979.88;5001046;28;20054;-75
2023/02/28 06:02:35;;;;;;;;;;;;;;;-3.54;97.61;96981.75;5003809;28;19977;-75
2023/02/28 06:05:01;;;;;;;;;;;;;;;-3.59;97.90;96990.56;5002296;28;19930;-75
2023/02/28 06:07:26;;;;;;;;;;;;;;;-3.56;97.88;96984.69;5007045;28;19943;-75
2023/02/28 06:09:51;;;;;;;;;;;;;;;-3.57;97.72;96987.63;5023359;28;19921;-75
2023/02/28 06:12:17;;;;;;;;;;;;;;;-3.58;97.91;96991.38;5020128;28;19951;-76
2023/02/28 06:14:42;;;;;;;;;;;;;;;-3.58;97.82;96994.88;5023779;28;19921;-76
2023/02/28 06:17:08;;;;;;;;;;;;;;;-3.60;97.92;96982.81;5018106;28;19964;-76
2023/02/28 06:19:33;;;;;;;;;;;;;;;-3.62;98.41;96999.13;5024203;28;19963;-75
2023/02/28 06:21:59;;;;;;;;;;;;;;;-3.61;98.43;96987.38;5023760;28;19993;-75
2023/02/28 06:24:27;;;;;;;;;;;;;;;-3.53;97.70;97007.44;5022391;28;19917;-75
2023/02/28 06:26:53;;;;;;;;;;;;;;;-3.53;97.88;97004.75;5025570;28;20057;-76
2023/02/28 06:29:18;;;;;;;;;;;;;;;-3.53;97.58;96994.06;5018958;28;20390;-77
2023/02/28 06:31:46;;;;;;;;;;;;;;;-3.44;97.58;97005.03;5024177;28;19921;-76
2023/02/28 06:34:12;;;;;;;;;;;;;;;-3.43;96.95;97018.16;5017263;28;19917;-75
2023/02/28 06:36:38;;;;;;;;;;;;;;;-3.40;96.20;97022.97;5021462;28;19918;-75
2023/02/28 06:39:03;;;;;;;;;;;;;;;-3.33;95.96;97010.13;5020789;28;20040;-78
2023/02/28 06:41:29;;;;;;;;;;;;;;;-3.34;96.93;97024.56;5022687;28;19928;-78
2023/02/28 06:43:54;;;;;;;;;;;;;;;-3.35;97.15;97036.38;5029273;28;19967;-75
2023/02/28 06:46:21;;;;;;;;;;;;;;;-3.36;96.80;97034.75;5033776;28;20353;-77
2023/02/28 06:48:46;;;;;;;;;;;;;;;-3.38;97.19;97031.56;5039087;28;19924;-76
2023/02/28 06:51:17;;;;;;;;;;;;;;;-3.30;96.83;97040.91;5017186;28;19917;-77
2023/02/28 06:53:42;;;;;;;;;;;;;;;-3.33;96.95;97025.38;5005038;28;20382;-78
2023/02/28 06:56:09;;;;;;;;;;;;;;;-3.34;97.04;97043.31;5015595;28;19924;-77
2023/02/28 06:58:35;;;;;;;;;;;;;;;-3.35;96.66;97041.72;5006462;28;20446;-76
2023/02/28 07:01:00;;;;;;;;;;;;;;;-3.37;96.51;97043.84;5004232;28;19968;-75
2023/02/28 07:03:26;;;;;;;;;;;;;;;-3.32;97.45;97051.91;5002222;28;20367;-76
2023/02/28 07:05:51;;;;;;;;;;;;;;;-3.29;97.01;97053.25;5005698;28;19918;-75
2023/02/28 07:08:17;;;;;;;;;;;;;;;-3.32;96.70;97061.81;5013581;28;19976;-75
2023/02/28 07:10:42;;;;;;;;;;;;;;;-3.32;96.67;97057.25;5020448;28;20581;-77
2023/02/28 07:13:08;;;;;;;;;;;;;;;-3.32;96.65;97065.28;5010930;28;19902;-77
2023/02/28 07:15:33;;;;;;;;;;;;;;;-3.32;96.33;97064.50;5027622;28;19913;-76
2023/02/28 07:17:59;;;;;;;;;;;;;;;-3.31;96.22;97068.78;5027646;28;20046;-75
2023/02/28 07:20:24;;;;;;;;;;;;;;;-3.19;96.39;97071.97;5003313;28;19925;-75
2023/02/28 07:22:55;;;;;;;;;;;;;;;-3.20;97.01;97067.72;5007343;28;19917;-78
2023/02/28 07:25:24;;;;;;;;;;;;;;;-3.24;96.32;97058.59;5002372;28;19949;-76
2023/02/28 07:27:50;;;;;;;;;;;;;;;-3.19;95.79;97068.50;5018688;28;19918;-76
2023/02/28 07:30:16;;;;;;;;;;;;;;;-3.16;95.99;97068.78;5004470;28;19924;-75
2023/02/28 07:32:41;;;;;;;;;;;;;;;-3.18;96.10;97070.13;5010900;28;19921;-76
2023/02/28 07:35:06;;;;;;;;;;;;;;;-3.17;95.57;97074.41;5002916;28;19917;-75
2023/02/28 07:37:36;;;;;;;;;;;;;;;-3.15;95.48;97073.06;5006477;28;19925;-76
2023/02/28 07:40:05;;;;;;;;;;;;;;;-3.01;95.74;97072.50;4987611;28;19924;-76
2023/02/28 07:42:31;;;;;;;;;;;;;;;-3.02;95.05;97079.75;5005962;28;19918;-75
2023/02/28 07:44:57;;;;;;;;;;;;;;;-3.11;95.41;97081.38;5005417;28;19981;-75
2023/02/28 07:47:22;;;;;;;;;;;;;;;-3.08;95.58;97092.38;5000758;28;20099;-75
2023/02/28 07:49:47;;;;;;;;;;;;;;;-3.12;95.47;97075.19;5006380;28;19921;-76
2023/02/28 07:52:12;;;;;;;;;;;;;;;-3.08;95.41;97076.28;5002582;28;20328;-75
2023/02/28 07:54:38;;;;;;;;;;;;;;;-2.90;95.60;97079.47;5011068;28;19921;-76
2023/02/28 07:57:03;;;;;;;;;;;;;;;-2.69;95.68;97077.56;5002286;28;19954;-77
2023/02/28 07:59:28;;;;;;;;;;;;;;;-2.75;95.02;97082.13;5005815;28;19971;-76
2023/02/28 08:01:54;;;;;;;;;;;;;;;-2.85;94.30;97078.66;5010201;28;20502;-77
2023/02/28 08:04:19;;;;;;;;;;;;;;;-2.93;94.62;97086.19;5005522;28;19927;-76
2023/02/28 08:06:44;;;;;;;;;;;;;;;-2.85;94.61;97074.09;5010627;28;19969;-76
2023/02/28 08:09:10;;;;;;;;;;;;;;;-2.75;94.27;97078.66;5013373;28;19921;-76
2023/02/28 08:11:36;;;;;;;;;;;;;;;-2.85;94.47;97082.13;5008293;28;19921;-76
2023/02/28 08:14:01;;;;;;;;;;;;;;;-2.88;94.42;97088.06;5011037;28;19968;-75
2023/02/28 08:16:27;;;;;;;;;;;;;;;-2.86;94.14;97093.94;5009097;28;20434;-76
2023/02/28 08:18:52;;;;;;;;;;;;;;;-2.87;94.31;97084.28;5016125;28;19918;-76
2023/02/28 08:21:18;;;;;;;;;;;;;;;-2.85;93.95;97086.69;5019914;28;20015;-77
2023/02/28 08:23:45;;;;;;;;;;;;;;;-2.84;93.94;97091.78;5022032;28;20407;-76
2023/02/28 08:26:11;;;;;;;;;;;;;;;-2.74;93.52;97096.31;5011848;28;20286;-77
2023/02/28 08:28:36;;;;;;;;;;;;;;;-2.76;93.13;97093.13;5019308;28;19993;-76
2023/02/28 08:31:06;;;;;;;;;;;;;;;-2.75;93.55;97076.75;5005299;28;19925;-76
2023/02/28 08:33:31;;;;;;;;;;;;;;;-2.63;93.90;97089.06;5020316;28;19925;-77
2023/02/28 08:35:57;;;;;;;;;;;;;;;-2.61;93.57;97093.09;5015791;28;19917;-76
2023/02/28 08:38:23;;;;;;;;;;;;;;;-2.45;94.42;97093.84;5001177;28;20377;-77
2023/02/28 08:40:48;;;;;;;;;;;;;;;-2.05;92.73;97085.91;5007511;28;19986;-77
2023/02/28 08:43:14;;;;;;;;;;;;;;;-1.98;91.59;97097.97;5003237;28;19924;-76
2023/02/28 08:45:40;;;;;;;;;;;;;;;-1.71;90.14;97099.47;5011012;28;19924;-76
2023/02/28 08:48:05;;;;;;;;;;;;;;;-1.14;87.53;97109.84;4988396;28;19921;-77
2023/02/28 08:50:31;;;;;;;;;;;;;;;-1.28;84.60;97113.13;5007135;28;20059;-77
2023/02/28 08:52:56;;;;;;;;;;;;;;;-1.59;87.53;97110.66;5007454;28;19917;-77
2023/02/28 08:55:21;;;;;;;;;;;;;;;-1.98;88.12;97116.78;5009515;28;20398;-77
2023/02/28 08:57:46;;;;;;;;;;;;;;;-2.05;89.07;97112.75;5027304;28;19911;-76
2023/02/28 09:00:13;;;;;;;;;;;;;;;-2.01;91.13;97124.56;5004036;28;20298;-77
2023/02/28 09:02:38;;;;;;;;;;;;;;;-1.92;88.93;97123.72;5006460;28;19980;-78
2023/02/28 09:05:04;;;;;;;;;;;;;;;-1.74;88.51;97129.56;5002334;28;20449;-76
2023/02/28 09:07:29;;;;;;;;;;;;;;;-2.29;89.15;97116.06;4988991;28;19917;-76
2023/02/28 09:09:54;;;;;;;;;;;;;;;-1.70;89.86;97125.22;5012167;28;20016;-76
2023/02/28 09:12:21;;;;;;;;;;;;;;;-1.90;89.75;97131.50;5008322;28;19917;-76
2023/02/28 09:14:46;;;;;;;;;;;;;;;-2.30;90.30;97125.22;5026908;28;20376;-77
2023/02/28 09:17:11;;;;;;;;;;;;;;;-1.94;90.13;97133.94;5022267;28;19925;-77
2023/02/28 09:19:36;;;;;;;;;;;;;;;-1.71;87.96;97130.88;5028363;28;19936;-77
2023/02/28 09:22:02;;;;;;;;;;;;;;;-1.49;88.45;97133.97;5023495;28;20020;-78
2023/02/28 09:24:28;;;;;;;;;;;;;;;-1.11;86.23;97131.56;5022366;28;19905;-77
2023/02/28 09:26:53;;;;;;;;;;;;;;;-1.47;83.91;97131.81;5026555;28;20161;-76
2023/02/28 09:29:19;;;;;;;;;;;;;;;-1.44;87.30;97133.97;5022578;28;19928;-75
2023/02/28 09:31:45;;;;;;;;;;;;;;;-1.14;86.17;97140.19;5026248;28;19937;-75
2023/02/28 09:34:10;;;;;;;;;;;;;;;-1.02;82.45;97131.78;5025521;28;19912;-78
2023/02/28 09:36:37;;;;;;;;;;;;;;;-0.84;84.50;97141.06;5029353;28;19932;-77
2023/02/28 09:39:02;;;;;;;;;;;;;;;-1.63;87.28;97125.72;5009694;28;19921;-77
2023/02/28 09:41:32;;;;;;;;;;;;;;;-2.03;88.25;97126.72;5027464;28;19932;-76
2023/02/28 09:44:02;;;;;;;;;;;;;;;-2.03;89.42;97126.72;5029055;28;19910;-77
2023/02/28 09:46:34;;;;;;;;;;;;;;;-2.14;89.58;97126.75;5024806;28;19977;-78
2023/02/28 09:49:01;;;;;;;;;;;;;;;-2.01;88.99;97130.75;5027489;28;20025;-77
2023/02/28 09:51:30;;;;;;;;;;;;;;;-1.90;88.90;97117.28;5014949;28;19932;-78
2023/02/28 09:53:56;;;;;;;;;;;;;;;-2.08;90.03;97110.66;5024850;28;20012;-76
2023/02/28 09:56:28;;;;;;;;;;;;;;;-2.08;90.45;97127.53;5020383;28;20382;-77
2023/02/28 09:58:53;;;;;;;;;;;;;;;-1.82;88.63;97132.81;5027806;28;19925;-77
2023/02/28 10:01:24;;;;;;;;;;;;;;;-1.74;89.92;97135.72;5003744;28;19917;-78
2023/02/28 10:04:09;;;;;;;;;;;;;;;-1.77;88.95;97138.16;5002041;28;19928;-77
2023/02/28 10:06:49;;;;;;;;;;;;;;;-1.57;89.93;97150.66;5006451;28;19922;-77
2023/02/28 10:09:24;;;;;;;;;;;;;;;-1.65;88.62;97149.38;5023324;28;19970;-78
2023/02/28 10:11:53;;;;;;;;;;;;;;;-1.37;86.90;97153.25;5016131;28;19925;-76
2023/02/28 10:14:20;;;;;;;;;;;;;;;-1.83;88.26;97164.22;5003974;28;20417;-76
2023/02/28 10:16:51;;;;;;;;;;;;;;;-1.82;88.43;97149.72;5008402;28;19917;-79
2023/02/28 10:19:16;;;;;;;;;;;;;;;-1.39;86.52;97159.97;5004521;28;19944;-77
2023/02/28 10:21:47;;;;;;;;;;;;;;;-1.36;87.43;97160.22;5009577;28;19949;-77
2023/02/28 10:24:23;;;;;;;;;;;;;;;-1.54;86.43;97152.81;5002361;28;19925;-77
2023/02/28 10:26:48;;;;;;;;;;;;;;;-1.85;89.38;97166.38;5011855;28;19917;-78
2023/02/28 10:29:14;;;;;;;;;;;;;;;-1.74;88.97;97156.41;5004999;28;19941;-75
2023/02/28 10:31:40;;;;;;;;;;;;;;;-1.72;89.14;97159.63;5018271;28;19905;-76
2023/02/28 10:34:06;;;;;;;;;;;;;;;-1.73;89.58;97155.31;5020982;28;19932;-76
2023/02/28 10:36:31;;;;;;;;;;;;;;;-1.86;89.51;97153.22;5020433;28;19921;-77
2023/02/28 10:38:57;;;;;;;;;;;;;;;-1.64;89.08;97156.38;5008976;28;19917;-77
2023/02/28 10:41:31;;;;;;;;;;;;;;;-1.55;89.51;97161.94;5006866;28;20001;-77
2023/02/28 10:44:19;;;;;;;;;;;;;;;-1.62;89.24;97151.53;5010543;28;19921;-75
2023/02/28 10:46:45;;;;;;;;;;;;;;;-1.37;89.97;97153.25;5003493;28;19929;-75
2023/02/28 10:49:23;;;;;;;;;;;;;;;-1.26;85.23;97151.31;4997961;28;19987;-75
2023/02/28 10:51:51;;;;;;;;;;;;;;;-0.87;84.32;97165.81;5003416;28;19925;-75
2023/02/28 10:54:28;;;;;;;;;;;;;;;-1.53;88.06;97170.53;5001532;28;19921;-75
2023/02/28 10:57:08;;;;;;;;;;;;;;;-1.69;88.71;97161.75;5002196;28;19918;-76
2023/02/28 10:59:34;;;;;;;;;;;;;;;-1.32;88.67;97165.03;5004430;28;20219;-77
2023/02/28 11:02:00;;;;;;;;;;;;;;;-1.10;87.42;97178.88;5002511;28;19922;-77
2023/02/28 11:04:39;;;;;;;;;;;;;;;-0.88;84.64;97174.94;5009072;28;19924;-76
2023/02/28 11:07:17;;;;;;;;;;;;;;;-0.84;83.06;97167.94;5015254;28;19926;-77
2023/02/28 11:09:47;;;;;;;;;;;;;;;-0.51;82.08;97158.22;5004233;28;19929;-78
2023/02/28 11:12:28;;;;;;;;;;;;;;;-1.33;85.75;97158.88;4982315;28;19929;-76
2023/02/28 11:15:16;;;;;;;;;;;;;;;-1.36;87.30;97149.47;5004430;28;19917;-76
2023/02/28 11:17:42;;;;;;;;;;;;;;;-1.25;87.91;97149.41;4991661;28;19917;-76
2023/02/28 11:20:17;;;;;;;;;;;;;;;-1.50;87.05;97155.75;4999565;28;20275;-77
2023/02/28 11:22:44;;;;;;;;;;;;;;;-1.44;88.38;97152.75;5002853;28;20573;-77
2023/02/28 11:25:16;;;;;;;;;;;;;;;-1.44;87.83;97151.94;5014277;28;19956;-76
2023/02/28 11:27:47;;;;;;;;;;;;;;;-1.55;86.94;97159.25;5027292;28;19909;-77
2023/02/28 11:30:24;;;;;;;;;;;;;;;-1.43;88.48;97158.94;5018477;28;19944;-77
2023/02/28 11:32:49;;;;;;;;;;;;;;;-1.49;86.80;97157.38;5018042;28;19952;-77
2023/02/28 11:35:23;;;;;;;;;;;;;;;-1.33;87.78;97158.88;5012177;28;19953;-76
2023/02/28 11:37:48;;;;;;;;;;;;;;;-1.00;87.50;97157.28;5012408;28;20371;-76
2023/02/28 11:40:18;;;;;;;;;;;;;;;-0.99;86.11;97164.28;4994773;28;19916;-76
2023/02/28 11:42:57;;;;;;;;;;;;;;;-0.64;84.06;97172.34;5022295;28;20005;-76
2023/02/28 11:45:28;;;;;;;;;;;;;;;-0.69;83.25;97167.81;4997281;28;20736;-77
2023/02/28 11:47:57;;;;;;;;;;;;;;;-0.95;85.01;97159.16;5002927;28;19975;-78
2023/02/28 11:50:42;;;;;;;;;;;;;;;-1.08;86.22;97157.91;4996342;28;20847;-76
2023/02/28 11:53:43;;;;;;;;;;;;;;;-0.80;87.41;97142.09;4997226;28;20425;-75
2023/02/28 11:56:15;;;;;;;;;;;;;;;-1.01;86.85;97150.31;4933543;28;19986;-75
2023/02/28 11:58:46;;;;;;;;;;;;;;;-1.09;86.80;97142.84;4992472;28;19921;-77
2023/02/28 12:01:21;;;;;;;;;;;;;;;-0.53;85.51;97155.03;4997204;28;19921;-76
2023/02/28 12:03:47;;;;;;;;;;;;;;;-0.51;84.28;97157.44;5002959;28;19929;-76
2023/02/28 12:06:26;;;;;;;;;;;;;;;-0.33;85.11;97159.41;4998458;28;19924;-75
2023/02/28 12:09:04;;;;;;;;;;;;;;;-0.52;82.70;97153.13;5006062;28;19921;-75
2023/02/28 12:11:29;;;;;;;;;;;;;;;-0.87;84.58;97153.16;5002390;28;19918;-77
2023/02/28 12:14:09;;;;;;;;;;;;;;;-0.89;85.07;97141.88;5003243;28;19921;-75
2023/02/28 12:16:34;;;;;;;;;;;;;;;-0.99;85.80;97153.53;5006255;28;20559;-75
2023/02/28 12:19:09;;;;;;;;;;;;;;;-0.24;85.57;97154.22;5014165;28;19921;-77
2023/02/28 12:21:55;;;;;;;;;;;;;;;-0.45;84.76;97154.44;5011228;28;19985;-76
2023/02/28 12:24:39;;;;;;;;;;;;;;;0.48;82.19;97148.78;4997611;28;19964;-77
2023/02/28 12:27:09;;;;;;;;;;;;;;;0.74;79.07;97157.31;5003048;28;19983;-78
2023/02/28 12:29:47;;;;;;;;;;;;;;;1.01;78.22;97147.75;5006575;28;19976;-76
2023/02/28 12:32:16;;;;;;;;;;;;;;;-0.13;81.04;97150.31;5014400;28;19914;-76
2023/02/28 12:34:47;;;;;;;;;;;;;;;-0.23;83.97;97148.53;5022047;28;20402;-77
2023/02/28 12:37:27;;;;;;;;;;;;;;;0.09;82.11;97147.13;5011959;28;19918;-76
2023/02/28 12:39:59;;;;;;;;;;;;;;;-0.09;82.66;97139.78;5019151;28;19939;-76
2023/02/28 12:42:30;;;;;;;;;;;;;;;0.44;81.07;97138.88;5018856;28;19944;-77
2023/02/28 12:44:58;;;;;;;;;;;;;;;0.13;79.71;97140.06;5022417;28;19929;-76
2023/02/28 12:47:24;;;;;;;;;;;;;;;-0.24;82.69;97138.06;5015447;28;20159;-75
2023/02/28 12:49:51;;;;;;;;;;;;;;;-0.30;83.93;97139.22;5009112;28;20000;-76
2023/02/28 12:52:25;;;;;;;;;;;;;;;0.14;83.14;97138.94;5003394;28;20047;-75